Time;durP1;ratioP1;P1;durP2;ratioP2;P2;SDS_P1;SDS_P2;PMS_P1;PMS_P2;Temp;Humidity;BMP_temperature;BMP_pressure;BME280_temperature;BME280_humidity;BME280_pressure;Samples;Min_cycle;Max_cycle;Signal;HPM_P1;HPM_P2
2022/07/04 00:05:18;;;;;;;10.70;4.90;;;;;;;18.43;58.34;99028.95;102917;1309;545246;-91
2022/07/04 00:08:51;;;;;;;10.90;4.50;;;;;;;18.40;58.40;99027.65;104596;1292;25350;-89
2022/07/04 00:12:38;;;;;;;9.60;4.50;;;;;;;18.33;58.48;99024.56;106085;1280;25544;-88
2022/07/04 00:20:21;;;;;;;11.40;4.60;;;;;;;18.13;58.72;99020.59;100855;1288;5348342;-88
2022/07/04 00:30:21;;;;;;;;;;;;;;;;;;;;;
2022/07/04 00:34:06;;;;;;;;;;;;;;;;;;;;;
2022/07/04 00:42:00;;;;;;;9.20;4.10;;;;;;;18.20;58.87;99000.78;102475;1315;23759;-90
2022/07/04 00:44:38;;;;;;;;;;;;;;;;;;;;;
2022/07/04 00:48:18;;;;;;;;;;;;;;;;;;;;;
2022/07/04 00:52:35;;;;;;;10.20;4.00;;;;;;;18.12;58.84;98994.00;101764;1322;22591;-90
2022/07/04 01:00:46;;;;;;;;;;;;;;;;;;;;;
2022/07/04 01:04:36;;;;;;;;;;;;;;;;;;;;;
2022/07/04 01:11:50;;;;;;;;;;;;;;;;;;;;;
2022/07/04 01:15:37;;;;;;;9.80;4.20;;;;;;;18.18;59.29;98968.84;104426;1291;22560;-90
2022/07/04 01:18:57;;;;;;;8.80;3.80;;;;;;;18.09;59.27;98965.27;104603;1290;24233;-89
2022/07/04 01:25:54;;;;;;;11.90;3.90;;;;;;;17.90;59.67;98966.02;104577;1290;22568;-88
2022/07/04 01:29:18;;;;;;;10.40;4.90;;;;;;;17.87;59.66;98958.79;104926;1290;25491;-89
2022/07/04 01:32:41;;;;;;;;;;;;;;;;;;;;;
2022/07/04 01:36:34;;;;;;;11.20;4.90;;;;;;;17.74;59.91;98952.70;104634;1291;22924;-88
2022/07/04 01:43:51;;;;;;;12.00;4.50;;;;;;;17.56;60.09;98952.34;104249;1294;22711;-89
2022/07/04 01:47:12;;;;;;;10.50;4.90;;;;;;;17.47;60.20;98956.08;104334;1285;22702;-91
2022/07/04 01:50:32;;;;;;;;;;;;;;;;;;;;;
2022/07/04 01:54:10;;;;;;;;;;;;;;;;;;;;;
2022/07/04 02:02:11;;;;;;;17.10;5.10;;;;;;;17.44;60.57;98953.60;103967;1297;22587;-89
2022/07/04 02:05:24;;;;;;;;;;;;;;;;;;;;;
2022/07/04 02:13:16;;;;;;;;;;;;;;;;;;;;;
2022/07/04 02:16:49;;;;;;;;;;;;;;;;;;;;;
2022/07/04 02:20:59;;;;;;;12.80;4.60;;;;;;;17.40;60.56;98956.23;102575;1307;24265;-91
2022/07/04 02:24:17;;;;;;;;;;;;;;;;;;;;;
2022/07/04 02:28:24;;;;;;;14.00;5.00;;;;;;;17.48;60.70;98959.73;102856;1305;25509;-88
2022/07/04 02:31:21;;;;;;;;;;;;;;;;;;;;;
2022/07/04 02:35:11;;;;;;;13.90;5.00;;;;;;;17.47;60.77;98960.46;103369;1303;22672;-89
2022/07/04 02:38:16;;;;;;;10.90;4.60;;;;;;;17.42;60.79;98955.06;102510;1314;22573;-88
2022/07/04 02:41:50;;;;;;;12.20;4.80;;;;;;;17.40;60.94;98952.55;102357;1315;22754;-89
2022/07/04 02:45:28;;;;;;;15.70;4.70;;;;;;;17.37;60.83;98948.98;102555;1314;24396;-88
2022/07/04 02:48:46;;;;;;;;;;;;;;;;;;;;;
2022/07/04 02:52:43;;;;;;;12.70;4.50;;;;;;;17.23;61.05;98941.86;102410;1311;22703;-89
2022/07/04 02:56:04;;;;;;;9.10;4.20;;;;;;;17.23;60.99;98941.91;102335;1314;22637;-89
2022/07/04 02:59:50;;;;;;;12.20;4.40;;;;;;;17.17;61.08;98940.92;102902;1309;23946;-87
2022/07/04 03:03:34;;;;;;;;;;;;;;;;;;;;;
2022/07/04 03:07:24;;;;;;;;;;;;;;;;;;;;;
2022/07/04 03:10:52;;;;;;;;;;;;;;;;;;;;;
2022/07/04 03:14:53;;;;;;;11.20;4.40;;;;;;;17.20;61.43;98945.15;101896;1319;24780;-89
2022/07/04 03:17:35;;;;;;;;;;;;;;;;;;;;;
2022/07/04 03:24:49;;;;;;;12.90;5.00;;;;;;;17.44;61.77;98947.52;103260;1306;545194;-92
2022/07/04 03:28:03;;;;;;;10.00;4.40;;;;;;;17.43;61.71;98951.07;105470;1286;22628;-88
2022/07/04 03:31:43;;;;;;;10.90;4.50;;;;;;;17.42;61.71;98947.73;105078;1287;22534;-90
2022/07/04 03:34:31;;;;;;;9.30;3.70;;;;;;;17.47;61.75;98951.55;104897;1287;23375;-89
2022/07/04 03:37:26;;;;;;;13.40;3.70;;;;;;;17.54;61.80;98952.75;101551;1285;5337258;-89
2022/07/04 03:40:38;;;;;;;;;;;;;;;;;;;;;
2022/07/04 03:44:23;;;;;;;18.70;5.30;;;;;;;17.73;61.92;98953.02;105315;1284;23055;-92
2022/07/04 03:50:52;;;;;;;;;;;;;;;;;;;;;
2022/07/04 03:54:28;;;;;;;;;;;;;;;;;;;;;
2022/07/04 03:58:06;;;;;;;11.30;4.10;;;;;;;18.01;61.92;98956.02;106170;1274;22802;-90
2022/07/04 04:00:58;;;;;;;12.50;3.40;;;;;;;18.17;61.77;98950.81;105748;1281;26800;-87
2022/07/04 04:08:17;;;;;;;10.20;3.10;;;;;;;18.62;61.65;98945.23;105880;1279;22629;-91
2022/07/04 04:11:30;;;;;;;8.40;3.10;;;;;;;18.87;61.54;98943.42;105228;1287;25267;-89
2022/07/04 04:14:42;;;;;;;11.00;3.50;;;;;;;19.09;61.43;98939.45;105197;1287;22596;-92
2022/07/04 04:17:51;;;;;;;9.60;2.90;;;;;;;19.29;61.20;98934.34;104803;1287;26025;-88
2022/07/04 04:21:16;;;;;;;8.00;3.10;;;;;;;19.47;61.13;98935.80;105088;1288;22995;-90
2022/07/04 04:28:30;;;;;;;12.80;4.10;;;;;;;19.83;61.01;98938.46;103900;1295;24206;-88
2022/07/04 04:32:49;;;;;;;13.50;3.80;;;;;;;20.03;60.80;98942.41;103695;1300;23942;-88
2022/07/04 04:35:27;;;;;;;11.80;3.50;;;;;;;20.17;60.74;98941.31;103084;1306;25315;-90
2022/07/04 04:38:51;;;;;;;9.80;3.40;;;;;;;20.30;60.56;98943.02;103570;1300;25418;-88
2022/07/04 04:42:37;;;;;;;;;;;;;;;;;;;;;
2022/07/04 04:45:58;;;;;;;;;;;;;;;;;;;;;
2022/07/04 04:49:09;;;;;;;9.00;2.70;;;;;;;20.96;60.51;98937.02;103224;1304;22681;-88
2022/07/04 04:52:05;;;;;;;6.40;2.80;;;;;;;21.16;60.30;98932.67;103384;1303;22596;-89
2022/07/04 04:55:02;;;;;;;11.10;2.70;;;;;;;21.45;60.31;98929.44;103555;1303;22596;-88
2022/07/04 04:58:06;;;;;;;;;;;;;;;;;;;;;
2022/07/04 05:01:19;;;;;;;;;;;;;;;;;;;;;
2022/07/04 05:05:25;;;;;;;7.50;2.40;;;;;;;22.29;59.66;98941.73;102920;1309;545946;-90
2022/07/04 05:08:29;;;;;;;;;;;;;;;;;;;;;
2022/07/04 05:11:29;;;;;;;8.20;3.10;;;;;;;22.73;59.39;98953.73;105035;1292;24349;-89
2022/07/04 05:14:43;;;;;;;9.70;3.70;;;;;;;22.89;59.46;98954.45;104854;1291;22547;-87
2022/07/04 05:17:39;;;;;;;10.80;4.80;;;;;;;23.02;59.43;98959.77;100586;1291;5160514;-88
2022/07/04 05:20:43;;;;;;;14.90;5.00;;;;;;;23.12;59.55;98962.96;104716;1292;25494;-88
2022/07/04 05:24:46;;;;;;;10.40;4.40;;;;;;;23.26;59.58;98970.65;104962;1289;25374;-88
2022/07/04 05:27:42;;;;;;;;;;;;;;;;;;;;;
2022/07/04 05:30:54;;;;;;;10.30;3.40;;;;;;;23.43;58.72;98975.02;104726;1290;25445;-87
2022/07/04 05:34:22;;;;;;;;;;;;;;;;;;;;;
2022/07/04 05:37:33;;;;;;;5.90;2.00;;;;;;;23.81;58.67;98974.84;104018;1295;24270;-87
2022/07/04 05:40:21;;;;;;;9.10;2.00;;;;;;;23.91;58.22;98974.88;104082;1295;24263;-88
2022/07/04 05:43:26;;;;;;;;;;;;;;;;;;;;;
2022/07/04 05:46:13;;;;;;;4.90;1.70;;;;;;;24.08;58.31;98993.84;104708;1289;25520;-88
2022/07/04 05:49:27;;;;;;;4.80;1.90;;;;;;;24.00;57.95;98991.17;104988;1289;24197;-88
2022/07/04 05:52:17;;;;;;;6.80;1.90;;;;;;;23.92;58.03;98997.20;104969;1288;25411;-88
2022/07/04 05:55:48;;;;;;;4.70;1.80;;;;;;;23.92;57.84;98996.66;104507;1289;22548;-88
2022/07/04 05:58:42;;;;;;;4.90;1.90;;;;;;;23.96;57.49;99005.95;104803;1289;22716;-90
2022/07/04 06:02:41;;;;;;;5.40;1.60;;;;;;;24.01;57.82;99014.98;104712;1291;23824;-88
2022/07/04 06:05:19;;;;;;;;;;;;;;;;;;;;;
2022/07/04 06:08:15;;;;;;;8.80;1.80;;;;;;;24.21;57.79;99011.23;104697;1290;24558;-88
2022/07/04 06:11:11;;;;;;;;;;;;;;;;;;;;;
2022/07/04 06:14:03;;;;;;;7.90;2.00;;;;;;;24.46;57.36;99011.97;105405;1284;21903;-88
2022/07/04 06:17:45;;;;;;;6.10;2.00;;;;;;;24.54;57.39;99010.04;105254;1286;24416;-89
2022/07/04 06:20:43;;;;;;;3.70;1.70;;;;;;;24.53;57.17;99001.89;105673;1281;22767;-90
2022/07/04 06:23:36;;;;;;;;;;;;;;;;;;;;;
2022/07/04 06:27:06;;;;;;;8.20;2.10;;;;;;;24.61;57.36;99001.16;105681;1281;22542;-89
2022/07/04 06:30:15;;;;;;;;;;;;;;;;;;;;;
2022/07/04 06:33:18;;;;;;;6.40;1.90;;;;;;;24.68;57.35;99018.52;105371;1283;24205;-91
2022/07/04 06:36:19;;;;;;;;;;;;;;;;;;;;;
2022/07/04 06:39:15;;;;;;;6.30;2.00;;;;;;;24.70;56.59;99023.77;105680;1281;22576;-88
2022/07/04 06:42:48;;;;;;;4.70;1.80;;;;;;;24.71;57.13;99029.30;106048;1281;24218;-89
2022/07/04 06:45:28;;;;;;;4.50;2.20;;;;;;;24.86;56.52;99029.52;105714;1281;22598;-86
2022/07/04 06:48:08;;;;;;;7.00;2.30;;;;;;;24.91;56.33;99032.45;106881;1274;22586;-87
2022/07/04 06:50:50;;;;;;;4.50;2.00;;;;;;;24.95;56.41;99035.54;106159;1273;24212;-90
2022/07/04 06:53:50;;;;;;;8.30;2.40;;;;;;;25.12;56.46;99039.17;106491;1273;22557;-89
2022/07/04 06:56:17;;;;;;;4.80;2.20;;;;;;;25.34;56.51;99042.20;106661;1273;22553;-88
2022/07/04 06:59:20;;;;;;;6.20;2.20;;;;;;;25.52;56.13;99043.45;106289;1274;25499;-89
2022/07/04 07:01:50;;;;;;;8.90;2.20;;;;;;;25.66;56.14;99041.17;106352;1274;22759;-89
2022/07/04 07:04:26;;;;;;;8.90;2.20;;;;;;;25.85;55.98;99040.80;106187;1274;25353;-88
2022/07/04 07:07:17;;;;;;;7.20;2.00;;;;;;;26.11;55.92;99037.40;106299;1274;22553;-88
2022/07/04 07:10:07;;;;;;;8.20;2.10;;;;;;;26.24;55.01;99038.73;106227;1275;22474;-89
2022/07/04 07:13:41;;;;;;;4.50;1.90;;;;;;;26.15;55.11;99043.08;106089;1274;24241;-89
2022/07/04 07:16:47;;;;;;;8.60;2.40;;;;;;;26.33;55.67;99042.61;106291;1274;23750;-89
2022/07/04 07:19:35;;;;;;;7.10;2.10;;;;;;;26.68;55.52;99037.35;106160;1274;25549;-89
2022/07/04 07:22:51;;;;;;;7.40;2.20;;;;;;;26.85;55.60;99038.19;106743;1274;22642;-89
2022/07/04 07:25:36;;;;;;;9.50;2.70;;;;;;;27.00;55.22;99044.04;106204;1274;22800;-91
2022/07/04 07:28:18;;;;;;;5.50;2.10;;;;;;;27.13;55.31;99043.46;106289;1273;22600;-89
2022/07/04 07:31:17;;;;;;;;;;;;;;;;;;;;;
2022/07/04 07:34:03;;;;;;;5.80;2.10;;;;;;;27.04;54.41;99035.98;106345;1273;22531;-90
2022/07/04 07:36:51;;;;;;;6.00;2.10;;;;;;;26.77;54.21;99034.73;106366;1273;22601;-88
2022/07/04 07:39:34;;;;;;;4.80;1.80;;;;;;;26.62;55.02;99041.19;106756;1274;24340;-86
2022/07/04 07:43:27;;;;;;;7.00;2.10;;;;;;;26.55;54.59;99038.93;106556;1273;22541;-88
2022/07/04 07:46:32;;;;;;;5.20;2.10;;;;;;;26.44;53.95;99040.64;106204;1273;25428;-90
2022/07/04 07:49:44;;;;;;;7.30;2.40;;;;;;;26.30;54.41;99041.90;105774;1281;22566;-89
2022/07/04 07:52:26;;;;;;;4.90;2.20;;;;;;;26.14;53.89;99033.48;105421;1281;23946;-88
2022/07/04 07:56:01;;;;;;;;;;;;;;;;;;;;;
2022/07/04 08:06:06;;;;;;;7.60;2.30;;;;;;;25.93;53.58;99051.71;105044;1288;24365;-87
2022/07/04 08:09:08;;;;;;;9.30;2.20;;;;;;;25.94;54.00;99055.08;105257;1287;25670;-87
2022/07/04 08:12:31;;;;;;;;;;;;;;;;;;;;;
2022/07/04 08:19:47;;;;;;;5.30;2.00;;;;;;;25.87;53.65;99062.19;103674;1299;22590;-88
2022/07/04 08:23:53;;;;;;;6.10;2.70;;;;;;;25.93;53.41;99060.98;103822;1300;23950;-89
2022/07/04 08:26:33;;;;;;;7.50;2.40;;;;;;;26.04;53.13;99061.31;103239;1303;22814;-88
2022/07/04 08:29:32;;;;;;;;;;;;;;;;;;;;;
2022/07/04 08:32:52;;;;;;;6.80;2.40;;;;;;;25.75;53.15;99075.74;103394;1303;25576;-88
2022/07/04 08:35:56;;;;;;;;;;;;;;;;;;;;;
2022/07/04 08:39:36;;;;;;;;;;;;;;;;;;;;;
2022/07/04 08:43:23;;;;;;;;;;;;;;;;;;;;;
2022/07/04 08:50:38;;;;;;;;;;;;;;;;;;;;;
2022/07/04 09:02:09;;;;;;;9.80;3.60;;;;;;;25.60;52.21;99095.09;104546;1291;24030;-87
2022/07/04 09:09:30;;;;;;;6.80;2.80;;;;;;;25.88;52.64;99100.95;104729;1290;23153;-88
2022/07/04 09:13:19;;;;;;;8.10;2.60;;;;;;;25.83;52.06;99106.84;104630;1291;25694;-86
2022/07/04 09:16:21;;;;;;;;;;;;;;;;;;;;;
2022/07/04 09:19:17;;;;;;;8.70;2.50;;;;;;;25.24;51.92;99105.58;103965;1297;24220;-88
2022/07/04 09:22:20;;;;;;;5.20;2.60;;;;;;;25.13;52.27;99110.95;103926;1297;22567;-87
2022/07/04 09:25:20;;;;;;;6.00;2.80;;;;;;;25.03;52.51;99111.55;103892;1297;22578;-88
2022/07/04 09:28:37;;;;;;;10.80;3.30;;;;;;;24.88;52.55;99109.89;104041;1297;25385;-89
2022/07/04 09:31:44;;;;;;;6.40;2.90;;;;;;;24.87;52.83;99116.61;104051;1294;25565;-89
2022/07/04 09:35:39;;;;;;;;;;;;;;;;;;;;;
2022/07/04 09:39:03;;;;;;;9.90;3.50;;;;;;;25.04;52.39;99118.70;104347;1293;22560;-88
2022/07/04 09:42:57;;;;;;;;;;;;;;;;;;;;;
2022/07/04 09:45:56;;;;;;;7.30;3.20;;;;;;;25.26;51.94;99131.27;105360;1284;23879;-89
2022/07/04 09:49:24;;;;;;;5.70;2.70;;;;;;;25.13;51.96;99128.55;105272;1285;25621;-88
2022/07/04 09:52:47;;;;;;;7.10;2.80;;;;;;;25.06;52.35;99135.23;105073;1282;24728;-88
2022/07/04 09:55:38;;;;;;;7.20;2.80;;;;;;;25.16;52.55;99136.67;105532;1281;24266;-88
2022/07/04 09:58:37;;;;;;;8.40;2.90;;;;;;;25.25;52.47;99140.01;105616;1281;22566;-88
2022/07/04 10:01:20;;;;;;;8.20;2.90;;;;;;;25.39;52.58;99138.72;105557;1282;22584;-89
2022/07/04 10:04:20;;;;;;;;;;;;;;;;;;;;;
2022/07/04 10:07:49;;;;;;;13.20;2.90;;;;;;;25.56;52.61;99128.70;105135;1284;24335;-89
2022/07/04 10:10:52;;;;;;;10.50;2.50;;;;;;;25.91;52.62;99121.29;105110;1284;22852;-89
2022/07/04 10:13:52;;;;;;;8.80;2.50;;;;;;;26.27;52.42;99114.88;105511;1284;25629;-88
2022/07/04 10:16:59;;;;;;;10.70;3.00;;;;;;;26.38;52.19;99106.17;105210;1284;22605;-87
2022/07/04 10:19:46;;;;;;;4.90;2.40;;;;;;;26.51;52.13;99105.00;105162;1284;23187;-85
2022/07/04 10:22:54;;;;;;;11.20;2.80;;;;;;;26.60;52.08;99095.72;105333;1279;24774;-85
2022/07/04 10:25:47;;;;;;;;;;;;;;;;;;;;;
2022/07/04 10:28:39;;;;;;;5.60;2.40;;;;;;;26.90;52.32;99090.73;105648;1279;22618;-87
2022/07/04 10:31:13;;;;;;;9.20;2.80;;;;;;;26.97;52.05;99086.27;105677;1279;22532;-89
2022/07/04 10:33:43;;;;;;;7.10;2.50;;;;;;;26.91;51.94;99087.23;105624;1280;22537;-89
2022/07/04 10:36:43;;;;;;;;;;;;;;;;;;;;;
2022/07/04 10:40:29;;;;;;;6.10;2.40;;;;;;;27.00;51.91;99081.98;106125;1273;22711;-87
2022/07/04 10:44:02;;;;;;;5.70;2.50;;;;;;;27.07;52.12;99090.58;105966;1274;22851;-88
2022/07/04 10:47:23;;;;;;;;;;;;;;;;;;;;;
2022/07/04 10:51:01;;;;;;;9.20;3.30;;;;;;;28.00;52.08;99082.80;106297;1273;25543;-87
2022/07/04 10:54:14;;;;;;;4.40;2.20;;;;;;;28.24;51.75;99086.13;105742;1279;22546;-88
2022/07/04 10:56:54;;;;;;;5.30;2.50;;;;;;;28.10;51.62;99085.45;105713;1279;25348;-88
2022/07/04 11:00:40;;;;;;;;;;;;;;;;;;;;;
2022/07/04 11:04:25;;;;;;;8.80;2.60;;;;;;;28.32;51.76;99070.65;105759;1279;22551;-92
2022/07/04 11:07:40;;;;;;;8.20;2.30;;;;;;;28.86;51.93;99069.34;105640;1279;25731;-91
2022/07/04 11:10:31;;;;;;;9.00;2.50;;;;;;;28.81;50.88;99069.80;105778;1279;25365;-88
2022/07/04 11:14:26;;;;;;;9.30;2.10;;;;;;;28.68;51.11;99071.42;106160;1277;22564;-88
2022/07/04 11:17:34;;;;;;;7.00;2.00;;;;;;;28.78;51.34;99071.57;105835;1278;23940;-90
2022/07/04 11:20:52;;;;;;;7.80;2.50;;;;;;;28.51;50.85;99072.16;105777;1278;22558;-88
2022/07/04 11:24:09;;;;;;;5.70;2.10;;;;;;;28.61;51.08;99069.84;106026;1273;24200;-89
2022/07/04 11:26:59;;;;;;;6.00;1.80;;;;;;;28.87;50.55;99070.80;106243;1274;22662;-87
2022/07/04 11:30:30;;;;;;;;;;;;;;;;;;;;;
2022/07/04 11:33:39;;;;;;;;;;;;;;;;;;;;;
2022/07/04 11:37:04;;;;;;;;;;;;;;;;;;;;;
2022/07/04 11:47:14;;;;;;;;;;;;;;;;;;;;;
2022/07/04 11:50:19;;;;;;;;;;;;;;;;;;;;;
2022/07/04 11:53:27;;;;;;;4.30;1.80;;;;;;;27.88;49.68;99068.96;106276;1274;25216;-89
2022/07/04 11:56:23;;;;;;;6.90;2.20;;;;;;;28.17;49.50;99069.81;106335;1274;24336;-87
2022/07/04 11:59:48;;;;;;;;;;;;;;;;;;;;;
2022/07/04 12:03:11;;;;;;;;;;;;;;;;;;;;;
2022/07/04 12:06:39;;;;;;;;;;;;;;;;;;;;;
2022/07/04 12:09:54;;;;;;;8.40;1.70;;;;;;;28.46;49.26;99057.83;106391;1274;23285;-88
2022/07/04 12:13:32;;;;;;;3.10;1.40;;;;;;;28.65;49.26;99060.84;106370;1274;24010;-90
2022/07/04 12:17:01;;;;;;;9.40;1.90;;;;;;;28.81;49.10;99059.11;106301;1274;22544;-88
2022/07/04 12:20:55;;;;;;;6.30;1.70;;;;;;;28.97;48.62;99059.27;106279;1273;22830;-90
2022/07/04 12:24:06;;;;;;;3.90;1.60;;;;;;;29.00;48.56;99051.91;105817;1278;22561;-91
2022/07/04 12:27:48;;;;;;;;;;;;;;;;;;;;;
2022/07/04 12:31:10;;;;;;;;;;;;;;;;;;;;;
2022/07/04 12:34:51;;;;;;;;;;;;;;;;;;;;;
2022/07/04 12:38:04;;;;;;;3.30;1.40;;;;;;;29.04;48.30;99051.39;104158;1294;23064;-89
2022/07/04 12:41:47;;;;;;;;;;;;;;;;;;;;;
2022/07/04 12:45:28;;;;;;;;;;;;;;;;;;;;;
2022/07/04 12:49:29;;;;;;;4.00;1.60;;;;;;;29.47;47.50;99045.13;103967;1299;25505;-90
2022/07/04 12:53:12;;;;;;;5.40;1.70;;;;;;;29.18;47.36;99039.92;103518;1307;24509;-89
2022/07/04 12:56:45;;;;;;;;;;;;;;;;;;;;;
2022/07/04 13:00:31;;;;;;;;;;;;;;;;;;;;;
2022/07/04 13:03:57;;;;;;;4.50;1.60;;;;;;;30.05;47.09;99045.05;102975;1309;545194;-90
2022/07/04 13:06:39;;;;;;;4.40;1.50;;;;;;;29.74;46.69;99046.99;105282;1284;22540;-89
2022/07/04 13:09:17;;;;;;;3.20;1.40;;;;;;;29.56;46.84;99049.36;105319;1284;24197;-88
2022/07/04 13:14:56;;;;;;;5.00;1.40;;;;;;;29.63;46.81;99052.59;105101;1287;22611;-88
2022/07/04 13:17:35;;;;;;;4.50;1.60;;;;;;;29.45;46.72;99049.94;101592;1284;5223794;-91
2022/07/04 13:20:22;;;;;;;4.40;1.70;;;;;;;29.26;46.55;99049.33;105618;1281;22598;-88
2022/07/04 13:23:01;;;;;;;5.20;1.60;;;;;;;29.23;46.99;99054.84;105855;1277;22524;-90
2022/07/04 13:26:18;;;;;;;;;;;;;;;;;;;;;
2022/07/04 13:29:25;;;;;;;6.60;1.70;;;;;;;29.78;46.82;99043.24;106564;1277;25273;-89
2022/07/04 13:32:10;;;;;;;6.80;1.60;;;;;;;29.95;46.71;99049.39;105767;1277;23914;-87
2022/07/04 13:38:23;;;;;;;7.00;2.50;;;;;;;30.27;46.40;99036.90;105914;1280;22562;-88
2022/07/04 13:41:10;;;;;;;14.60;5.40;;;;;;;30.39;46.46;99033.63;105893;1280;22655;-89
2022/07/04 13:44:15;;;;;;;4.90;1.80;;;;;;;30.41;46.68;99031.50;105691;1280;22704;-88
2022/07/04 13:46:56;;;;;;;4.30;1.70;;;;;;;30.49;46.42;99023.19;105689;1280;22843;-90
2022/07/04 13:49:37;;;;;;;3.70;1.40;;;;;;;30.65;46.53;99018.39;105655;1281;22548;-90
2022/07/04 13:52:45;;;;;;;3.50;1.40;;;;;;;30.87;46.40;99012.72;105765;1280;22567;-90
2022/07/04 13:55:35;;;;;;;4.30;1.70;;;;;;;31.09;46.10;99010.27;105712;1280;24253;-90
2022/07/04 13:58:40;;;;;;;2.90;1.30;;;;;;;31.05;45.78;99008.91;105654;1280;24123;-90
2022/07/04 14:01:35;;;;;;;3.40;1.30;;;;;;;30.88;45.12;99006.13;105644;1280;22994;-92
2022/07/04 14:04:16;;;;;;;2.60;0.70;;;;;;;30.97;44.76;99008.24;105780;1280;22563;-89
2022/07/04 14:06:53;;;;;;;3.60;0.90;;;;;;;31.03;44.35;99008.68;105711;1280;22551;-92
2022/07/04 14:09:33;;;;;;;3.50;1.30;;;;;;;31.05;44.46;99008.23;105730;1280;25223;-90
2022/07/04 14:12:23;;;;;;;3.70;1.20;;;;;;;31.10;44.62;99003.04;105709;1280;22629;-90
2022/07/04 14:15:30;;;;;;;5.40;1.30;;;;;;;31.29;44.50;98996.05;105688;1280;24259;-89
2022/07/04 14:18:10;;;;;;;6.30;1.20;;;;;;;31.21;44.44;98997.20;105701;1280;24334;-89
2022/07/04 14:20:50;;;;;;;5.30;1.10;;;;;;;31.26;44.22;98991.63;105647;1280;24211;-89
2022/07/04 14:23:48;;;;;;;3.90;1.10;;;;;;;31.14;43.99;98994.64;105745;1280;22585;-89
2022/07/04 14:26:24;;;;;;;2.30;0.90;;;;;;;30.82;43.18;99001.37;105764;1280;25367;-88
2022/07/04 14:29:30;;;;;;;4.70;1.00;;;;;;;30.60;43.07;98998.05;106278;1278;25244;-88
2022/07/04 14:32:40;;;;;;;3.10;0.60;;;;;;;30.69;43.46;98991.15;105733;1280;25389;-87
2022/07/04 14:35:26;;;;;;;4.10;1.10;;;;;;;30.99;43.49;98993.77;105752;1280;24243;-90
2022/07/04 14:38:16;;;;;;;3.40;0.90;;;;;;;31.33;43.41;98990.84;105797;1280;24332;-89
2022/07/04 14:41:14;;;;;;;4.30;1.20;;;;;;;31.57;42.93;98989.36;105866;1280;22676;-89
2022/07/04 14:44:03;;;;;;;2.20;0.90;;;;;;;31.60;42.48;98988.09;106117;1277;25464;-89
2022/07/04 14:46:51;;;;;;;13.40;6.00;;;;;;;31.42;42.62;98984.06;106080;1277;22572;-89
2022/07/04 14:49:26;;;;;;;5.00;1.90;;;;;;;31.50;42.91;98984.87;106486;1277;22565;-90
2022/07/04 14:52:49;;;;;;;4.00;1.00;;;;;;;31.47;42.62;98987.63;106108;1277;25492;-89
2022/07/04 14:55:26;;;;;;;4.60;1.00;;;;;;;31.47;42.65;98986.75;106149;1277;24256;-87
2022/07/04 14:58:13;;;;;;;2.60;0.90;;;;;;;31.15;42.52;98988.98;106232;1277;25239;-88
2022/07/04 15:01:01;;;;;;;3.00;1.20;;;;;;;30.95;41.96;98986.52;106314;1277;22711;-90
2022/07/04 15:04:39;;;;;;;5.00;0.80;;;;;;;30.99;41.83;98981.42;106095;1277;25226;-88
2022/07/04 15:07:21;;;;;;;3.50;1.30;;;;;;;31.05;42.39;98984.56;105334;1284;22525;-89
2022/07/04 15:10:09;;;;;;;3.40;1.20;;;;;;;31.32;42.41;98978.45;105284;1285;22652;-88
2022/07/04 15:12:55;;;;;;;4.80;1.30;;;;;;;31.55;42.37;98974.63;105175;1285;23305;-88
2022/07/04 15:16:04;;;;;;;3.40;0.90;;;;;;;31.69;42.08;98972.77;105164;1285;22648;-89
2022/07/04 15:18:58;;;;;;;3.70;0.90;;;;;;;31.83;41.86;98968.03;105700;1283;25429;-89
2022/07/04 15:24:47;;;;;;;5.10;1.30;;;;;;;32.10;41.77;98968.69;105190;1283;22559;-89
2022/07/04 15:28:08;;;;;;;2.80;1.20;;;;;;;31.74;41.41;98965.59;105262;1284;22539;-89
2022/07/04 15:31:48;;;;;;;;;;;;;;;;;;;;;
2022/07/04 15:34:35;;;;;;;4.00;1.00;;;;;;;30.54;41.14;98963.73;104484;1294;25245;-88
2022/07/04 15:37:33;;;;;;;2.90;1.00;;;;;;;30.22;41.29;98969.18;104631;1294;25210;-88
2022/07/04 15:40:41;;;;;;;3.70;0.90;;;;;;;29.93;41.51;98964.23;104231;1294;25614;-89
2022/07/04 15:43:30;;;;;;;2.80;1.10;;;;;;;29.68;40.84;98967.66;104367;1286;25701;-90
2022/07/04 15:46:02;;;;;;;4.20;1.00;;;;;;;29.32;41.04;98965.77;105187;1285;25590;-88
2022/07/04 15:48:43;;;;;;;3.80;1.30;;;;;;;29.17;41.37;98964.98;105111;1287;24273;-88
2022/07/04 15:51:26;;;;;;;2.50;1.10;;;;;;;28.96;41.21;98958.07;105179;1285;22503;-88
2022/07/04 15:54:06;;;;;;;3.30;1.10;;;;;;;28.83;41.32;98956.52;105281;1285;23947;-87
2022/07/04 15:56:43;;;;;;;4.80;1.20;;;;;;;28.70;41.15;98960.53;105017;1285;24195;-87
2022/07/04 15:59:26;;;;;;;3.20;1.30;;;;;;;28.56;41.23;98961.66;105168;1285;22575;-87
2022/07/04 16:02:12;;;;;;;3.70;1.20;;;;;;;28.42;41.50;98953.38;105151;1286;23046;-87
2022/07/04 16:04:52;;;;;;;3.10;1.10;;;;;;;28.26;41.25;98949.79;105207;1285;22708;-91
2022/07/04 16:07:48;;;;;;;2.50;1.00;;;;;;;28.10;41.13;98953.79;105193;1285;25281;-88
2022/07/04 16:10:43;;;;;;;5.30;1.10;;;;;;;27.98;41.21;98951.48;105150;1285;22659;-91
2022/07/04 16:13:35;;;;;;;4.70;1.20;;;;;;;27.91;41.83;98949.15;106034;1277;22917;-89
2022/07/04 16:16:57;;;;;;;5.90;1.70;;;;;;;27.86;41.46;98947.65;106050;1277;25394;-88
2022/07/04 16:20:23;;;;;;;7.00;1.60;;;;;;;27.76;41.48;98942.79;106183;1277;22532;-88
2022/07/04 16:23:16;;;;;;;8.30;2.00;;;;;;;27.60;41.72;98935.77;106148;1277;22481;-88
2022/07/04 16:26:13;;;;;;;5.30;2.10;;;;;;;27.47;42.09;98936.70;105798;1277;22475;-88
2022/07/04 16:29:11;;;;;;;;;;;;;;;;;;;;;
2022/07/04 16:32:24;;;;;;;;;;;;;;;;;;;;;
2022/07/04 16:35:27;;;;;;;;;;;;;;;;;;;;;
2022/07/04 16:38:45;;;;;;;9.40;2.30;;;;;;;26.78;42.40;98936.84;106174;1275;22668;-89
2022/07/04 16:42:07;;;;;;;17.60;2.80;;;;;;;26.62;42.30;98937.92;106149;1274;25602;-86
2022/07/04 16:45:54;;;;;;;;;;;;;;;;;;;;;
2022/07/04 16:49:07;;;;;;;11.30;2.20;;;;;;;26.39;42.57;98950.11;104770;1290;22585;-88
2022/07/04 16:52:13;;;;;;;8.80;1.90;;;;;;;26.31;42.55;98960.40;104867;1290;25473;-88
2022/07/04 16:54:59;;;;;;;8.90;2.20;;;;;;;26.24;42.60;98970.52;105065;1290;22559;-87
2022/07/04 16:58:19;;;;;;;5.00;1.60;;;;;;;26.16;42.91;98979.91;104572;1292;22755;-89
2022/07/04 17:01:15;;;;;;;;;;;;;;;;;;;;;
2022/07/04 17:04:20;;;;;;;7.40;1.60;;;;;;;25.37;43.44;99031.80;105588;1291;22903;-91
2022/07/04 17:07:29;;;;;;;;;;;;;;;;;;;;;
2022/07/04 17:10:28;;;;;;;;;;;;;;;;;;;;;
2022/07/04 17:13:54;;;;;;;;;;;;;;;;;;;;;
2022/07/04 17:17:53;;;;;;;3.60;1.70;;;;;;;22.72;45.50;99066.11;109507;1281;22581;-92
2022/07/04 17:21:37;;;;;;;;;;;;;;;;;;;;;
2022/07/04 17:24:27;;;;;;;7.80;2.80;;;;;;;21.89;46.60;99106.02;109712;1277;22438;-93
2022/07/04 17:27:34;;;;;;;7.80;2.40;;;;;;;21.56;47.07;99092.97;109618;1279;22407;-94
2022/07/04 17:31:34;;;;;;;6.50;2.20;;;;;;;21.24;47.73;99094.19;109689;1277;23104;-91
2022/07/04 17:34:40;;;;;;;;;;;;;;;;;;;;;
2022/07/04 17:37:38;;;;;;;7.20;3.00;;;;;;;21.10;49.08;99073.17;109336;1278;23437;-90
2022/07/04 17:41:40;;;;;;;7.70;2.70;;;;;;;21.22;49.38;99064.75;109386;1278;22316;-89
2022/07/04 17:44:45;;;;;;;;;;;;;;;;;;;;;
2022/07/04 17:47:54;;;;;;;7.20;2.80;;;;;;;21.54;50.11;99060.09;108659;1285;22517;-90
2022/07/04 17:50:35;;;;;;;8.60;3.00;;;;;;;21.78;50.52;99040.21;107936;1290;22463;-89
2022/07/04 17:53:26;;;;;;;6.40;2.50;;;;;;;21.88;50.37;99041.92;107927;1291;22221;-88
2022/07/04 17:56:02;;;;;;;8.60;3.00;;;;;;;21.94;50.63;99035.18;107719;1290;23178;-88
2022/07/04 17:58:40;;;;;;;6.40;3.00;;;;;;;21.94;50.72;99030.18;107757;1290;23354;-89
2022/07/04 18:01:39;;;;;;;8.60;3.20;;;;;;;21.92;50.82;99030.95;107996;1290;22236;-89
2022/07/04 18:04:22;;;;;;;8.80;3.00;;;;;;;21.80;51.02;99033.47;107784;1290;22436;-89
2022/07/04 18:07:07;;;;;;;7.20;3.30;;;;;;;21.78;51.36;99038.13;107966;1291;23324;-89
2022/07/04 18:10:01;;;;;;;6.10;2.80;;;;;;;21.83;51.45;99038.48;107638;1291;22418;-90
2022/07/04 18:12:48;;;;;;;8.20;3.10;;;;;;;21.91;51.71;99030.14;107715;1290;22402;-90
2022/07/04 18:15:28;;;;;;;11.50;2.90;;;;;;;22.00;51.95;99026.71;108007;1290;22593;-89
2022/07/04 18:18:16;;;;;;;5.50;2.50;;;;;;;22.16;52.10;99022.27;107764;1291;22217;-89
2022/07/04 18:21:23;;;;;;;7.30;2.50;;;;;;;22.30;52.28;99010.80;107942;1288;23282;-89
2022/07/04 18:24:11;;;;;;;7.80;3.10;;;;;;;22.28;51.96;99013.17;108272;1287;23178;-88
2022/07/04 18:26:57;;;;;;;7.60;3.10;;;;;;;22.15;52.31;99022.71;108488;1281;22404;-89
2022/07/04 18:29:41;;;;;;;8.40;2.90;;;;;;;22.03;52.34;99023.31;109012;1281;23086;-89
2022/07/04 18:32:44;;;;;;;11.40;3.60;;;;;;;21.89;52.49;99020.38;109122;1281;22375;-88
2022/07/04 18:35:25;;;;;;;9.10;3.10;;;;;;;21.77;52.99;99016.60;109167;1281;22518;-89